Time;durP1;ratioP1;P1;durP2;ratioP2;P2;SDS_P1;SDS_P2;PMS_P1;PMS_P2;Temp;Humidity;BMP_temperature;BMP_pressure;BME280_temperature;BME280_humidity;BME280_pressure;Samples;Min_cycle;Max_cycle;Signal;HPM_P1;HPM_P2
2021/06/06 00:01:24;;;;;;;2.08;0.90;;;;;17.40;100630.00;;;;5124915;27;20039;-75
2021/06/06 00:03:53;;;;;;;5.82;0.90;;;;;17.40;100648.00;;;;5124995;27;20102;-76
2021/06/06 00:06:35;;;;;;;2.60;0.68;;;;;17.40;100699.00;;;;5125216;27;20026;-75
2021/06/06 00:09:04;;;;;;;1.77;0.63;;;;;17.70;101053.00;;;;5124642;27;20151;-75
2021/06/06 00:11:33;;;;;;;5.15;0.90;;;;;17.80;101146.00;;;;5124426;27;20038;-73
2021/06/06 00:14:03;;;;;;;14.27;2.75;;;;;17.70;101081.00;;;;5122488;28;20092;-73
2021/06/06 00:16:34;;;;;;;25.60;4.57;;;;;16.20;101066.00;;;;5123954;27;20039;-73
2021/06/06 00:19:01;;;;;;;18.20;3.10;;;;;15.80;100955.00;;;;5123451;27;20100;-73
2021/06/06 00:21:30;;;;;;;10.48;3.10;;;;;15.80;100955.00;;;;5123864;27;20055;-75
2021/06/06 00:23:57;;;;;;;11.27;2.58;;;;;15.80;100983.00;;;;5123603;27;20506;-75
2021/06/06 00:26:25;;;;;;;12.18;3.10;;;;;15.70;100990.00;;;;5123376;27;20030;-74
2021/06/06 00:28:52;;;;;;;7.72;3.05;;;;;15.80;100989.00;;;;5124166;27;20038;-75
2021/06/06 00:31:19;;;;;;;13.07;3.63;;;;;15.80;101021.00;;;;5123789;27;20168;-74
2021/06/06 00:33:46;;;;;;;16.08;2.78;;;;;15.80;101036.00;;;;5124036;27;21089;-74
2021/06/06 00:36:13;;;;;;;8.32;2.80;;;;;15.80;101045.00;;;;5124333;27;20023;-75
2021/06/06 00:38:40;;;;;;;9.30;2.95;;;;;15.80;101055.00;;;;5123777;27;20047;-74
2021/06/06 00:41:07;;;;;;;13.05;2.85;;;;;15.80;101043.00;;;;5124374;27;20479;-74
2021/06/06 00:43:34;;;;;;;15.05;2.60;;;;;15.80;101023.00;;;;5116562;27;20099;-73
2021/06/06 00:46:02;;;;;;;10.27;3.30;;;;;15.90;101026.00;;;;5102152;28;20032;-74
2021/06/06 00:48:29;;;;;;;8.73;3.00;;;;;15.80;101036.00;;;;5103190;28;20091;-74
2021/06/06 00:50:58;;;;;;;12.32;3.22;;;;;15.90;101045.00;;;;5102816;28;20035;-74
2021/06/06 00:53:44;;;;;;;10.10;2.42;;;;;15.80;101057.00;;;;5103394;28;20031;-74
2021/06/06 00:56:16;;;;;;;7.30;2.35;;;;;15.70;101067.00;;;;5103336;28;20039;-74
2021/06/06 00:58:43;;;;;;;;;;;;;15.70;101101.00;;;;5099348;28;20475;-74
2021/06/06 01:01:11;;;;;;;6.75;2.17;;;;;15.80;101109.00;;;;5089947;28;19916;-75
2021/06/06 01:03:38;;;;;;;10.73;2.45;;;;;15.80;101124.00;;;;5089860;28;20074;-76
2021/06/06 01:06:14;;;;;;;8.38;2.58;;;;;15.80;101110.00;;;;5089627;28;20028;-74
2021/06/06 01:08:41;;;;;;;10.65;2.35;;;;;15.70;101076.00;;;;5089546;28;20074;-74
2021/06/06 01:11:13;;;;;;;10.20;2.20;;;;;15.70;101113.00;;;;5089306;28;20036;-74
2021/06/06 01:13:48;;;;;;;10.90;3.00;;;;;15.70;101140.00;;;;5089833;28;20044;-75
2021/06/06 01:16:30;;;;;;;5.63;1.70;;;;;15.70;101141.00;;;;5089024;28;20024;-75
2021/06/06 01:18:59;;;;;;;5.78;2.17;;;;;15.70;101129.00;;;;5089998;28;20093;-74
2021/06/06 01:21:59;;;;;;;4.03;1.60;;;;;15.70;101139.00;;;;5088895;28;20025;-74
2021/06/06 01:24:30;;;;;;;7.88;2.30;;;;;15.60;101143.00;;;;5088878;28;20024;-74
2021/06/06 01:27:00;;;;;;;7.15;1.98;;;;;15.60;101152.00;;;;5089247;28;20024;-74
2021/06/06 01:29:41;;;;;;;7.47;2.13;;;;;15.60;101163.00;;;;5088711;28;20028;-74
2021/06/06 01:32:17;;;;;;;14.85;5.45;;;;;15.70;101162.00;;;;5089547;28;20398;-75
2021/06/06 01:34:48;;;;;;;10.43;2.00;;;;;15.70;101193.00;;;;5088847;28;20036;-75
2021/06/06 01:37:18;;;;;;;5.15;2.13;;;;;15.60;101180.00;;;;5088938;28;20494;-75
2021/06/06 01:39:49;;;;;;;4.85;2.08;;;;;15.60;101164.00;;;;5087482;28;20035;-75
2021/06/06 01:42:32;;;;;;;10.52;2.13;;;;;15.50;101096.00;;;;5089551;28;20165;-74
2021/06/06 01:45:07;;;;;;;5.70;2.25;;;;;15.50;101101.00;;;;5088542;28;20168;-74
2021/06/06 01:47:33;;;;;;;4.40;2.10;;;;;15.60;101115.00;;;;5088587;28;20398;-75
2021/06/06 01:50:07;;;;;;;5.68;2.60;;;;;15.60;101137.00;;;;5088973;28;20050;-75
2021/06/06 01:52:36;;;;;;;5.35;2.25;;;;;15.50;101145.00;;;;5089157;28;20024;-74
2021/06/06 01:55:10;;;;;;;6.82;2.83;;;;;15.50;101140.00;;;;5089386;28;20020;-74
2021/06/06 01:57:39;;;;;;;8.40;3.10;;;;;15.50;101176.00;;;;5088680;28;20042;-73
2021/06/06 02:00:14;;;;;;;9.23;3.03;;;;;15.60;101172.00;;;;5088212;28;20043;-74
2021/06/06 02:02:40;;;;;;;5.03;2.92;;;;;15.60;101188.00;;;;5088665;28;20035;-73
2021/06/06 02:05:11;;;;;;;7.30;3.42;;;;;15.50;101181.00;;;;5088406;28;20016;-74
2021/06/06 02:07:39;;;;;;;7.10;3.00;;;;;15.50;101178.00;;;;5088664;28;20027;-73
2021/06/06 02:10:29;;;;;;;7.40;3.13;;;;;15.50;101167.00;;;;5087807;28;20402;-73
2021/06/06 02:13:22;;;;;;;9.80;3.70;;;;;15.50;101155.00;;;;5088227;28;20024;-73
2021/06/06 02:15:53;;;;;;;11.90;4.55;;;;;15.50;101170.00;;;;5088057;28;20505;-73
2021/06/06 02:18:19;;;;;;;10.43;4.20;;;;;15.60;101141.00;;;;5089051;28;20031;-73
2021/06/06 02:20:49;;;;;;;6.45;2.97;;;;;15.50;101159.00;;;;5088338;28;20028;-72
2021/06/06 02:23:20;;;;;;;9.93;3.95;;;;;15.50;101149.00;;;;5088459;28;20105;-73
2021/06/06 02:25:46;;;;;;;;;;;;;15.50;101130.00;;;;5088536;28;20115;-73
2021/06/06 02:28:29;;;;;;;11.00;3.70;;;;;15.60;101111.00;;;;5087987;28;19916;-73
2021/06/06 02:31:08;;;;;;;9.40;3.47;;;;;15.50;101073.00;;;;5088260;28;20020;-72
2021/06/06 02:33:42;;;;;;;11.93;3.75;;;;;15.50;101072.00;;;;5088013;28;20421;-73
2021/06/06 02:36:12;;;;;;;5.40;3.63;;;;;15.40;101052.00;;;;5088024;28;20024;-73
2021/06/06 02:39:01;;;;;;;9.07;5.10;;;;;15.50;101079.00;;;;5087614;28;20024;-73
2021/06/06 02:41:34;;;;;;;8.60;5.30;;;;;15.40;101099.00;;;;5087182;28;20028;-73
2021/06/06 02:44:08;;;;;;;9.48;4.85;;;;;15.50;101116.00;;;;5087415;28;20194;-73
2021/06/06 02:46:37;;;;;;;11.63;4.53;;;;;15.40;101106.00;;;;5087695;28;20044;-73
2021/06/06 02:49:17;;;;;;;9.52;4.65;;;;;15.30;101105.00;;;;5087413;28;20729;-73
2021/06/06 02:52:00;;;;;;;6.57;3.15;;;;;15.30;101087.00;;;;5088066;28;20031;-73
2021/06/06 02:54:36;;;;;;;8.20;3.60;;;;;15.30;101070.00;;;;5087784;28;20039;-73
2021/06/06 02:57:07;;;;;;;7.38;2.97;;;;;15.30;101077.00;;;;5087601;28;20031;-73
2021/06/06 03:00:00;;;;;;;8.65;3.13;;;;;15.40;101040.00;;;;5087532;28;20410;-73
2021/06/06 03:02:37;;;;;;;2.80;1.67;;;;;15.30;101027.00;;;;5087150;28;20024;-73
2021/06/06 03:05:06;;;;;;;7.63;2.10;;;;;15.30;101032.00;;;;5087235;28;20441;-72
2021/06/06 03:07:42;;;;;;;3.60;1.90;;;;;15.30;101035.00;;;;5087151;28;20060;-74
2021/06/06 03:10:10;;;;;;;4.60;1.75;;;;;15.20;101020.00;;;;5086740;28;20028;-73
2021/06/06 03:12:37;;;;;;;6.95;1.52;;;;;15.20;101005.00;;;;5087055;28;20510;-73
2021/06/06 03:15:09;;;;;;;3.85;2.15;;;;;15.20;101005.00;;;;5086453;28;20099;-73
2021/06/06 03:17:50;;;;;;;2.67;1.48;;;;;15.20;100983.00;;;;5087169;28;20035;-73
2021/06/06 03:20:25;;;;;;;4.55;2.00;;;;;15.20;100982.00;;;;5087675;28;20039;-73
2021/06/06 03:22:53;;;;;;;3.53;1.50;;;;;15.20;100970.00;;;;5085938;28;20115;-72
2021/06/06 03:25:37;;;;;;;3.92;1.75;;;;;15.20;100945.00;;;;5086985;28;20052;-73
2021/06/06 03:28:05;;;;;;;6.28;1.67;;;;;15.20;100949.00;;;;5087008;28;20028;-73
2021/06/06 03:30:55;;;;;;;3.10;1.33;;;;;15.20;100937.00;;;;5087179;28;20059;-72
2021/06/06 03:33:34;;;;;;;4.10;1.70;;;;;15.10;100922.00;;;;5086566;28;20442;-72
2021/06/06 03:36:01;;;;;;;4.18;1.52;;;;;15.10;100906.00;;;;5086699;28;20531;-73
2021/06/06 03:38:27;;;;;;;3.28;1.42;;;;;15.10;100892.00;;;;5087246;28;20035;-73
2021/06/06 03:40:54;;;;;;;1.73;1.20;;;;;15.10;100886.00;;;;5087526;28;21382;-73
2021/06/06 03:43:20;;;;;;;3.30;0.95;;;;;15.10;100902.00;;;;5085175;28;20047;-73
2021/06/06 03:45:47;;;;;;;2.75;1.17;;;;;15.00;100896.00;;;;5086514;28;20028;-73
2021/06/06 03:48:14;;;;;;;2.97;1.20;;;;;15.10;100895.00;;;;5086643;28;20593;-73
2021/06/06 03:50:42;;;;;;;4.72;1.17;;;;;15.10;100875.00;;;;5087170;28;20028;-73
2021/06/06 03:53:09;;;;;;;2.90;1.10;;;;;15.10;100874.00;;;;5087181;28;20027;-72
2021/06/06 03:55:36;;;;;;;7.80;1.10;;;;;15.10;100880.00;;;;5086592;28;20024;-72
2021/06/06 03:58:03;;;;;;;2.22;1.00;;;;;15.10;100892.00;;;;5086215;28;20575;-74
2021/06/06 04:00:37;;;;;;;1.33;0.90;;;;;15.00;100891.00;;;;5086524;28;20055;-73
2021/06/06 04:03:04;;;;;;;1.48;0.90;;;;;15.00;100884.00;;;;5086924;28;20020;-73
2021/06/06 04:05:31;;;;;;;1.80;0.82;;;;;15.00;100871.00;;;;5086595;28;20035;-74
2021/06/06 04:07:58;;;;;;;3.10;1.02;;;;;15.00;100882.00;;;;5086729;28;20868;-73
2021/06/06 04:10:25;;;;;;;2.53;1.38;;;;;15.00;100864.00;;;;5086501;28;20036;-73
2021/06/06 04:12:52;;;;;;;2.92;0.90;;;;;15.00;100860.00;;;;5086194;28;20035;-73
2021/06/06 04:15:20;;;;;;;4.95;0.98;;;;;15.00;100862.00;;;;5085777;28;20024;-72
2021/06/06 04:17:47;;;;;;;1.52;1.00;;;;;15.00;100853.00;;;;5087252;28;20020;-72
2021/06/06 04:20:15;;;;;;;4.63;0.80;;;;;15.00;100858.00;;;;5086861;28;20028;-72
2021/06/06 04:22:41;;;;;;;2.65;1.13;;;;;15.00;100854.00;;;;5086628;28;20031;-74
2021/06/06 04:25:10;;;;;;;0.82;0.70;;;;;15.00;100850.00;;;;5086514;28;20038;-74
2021/06/06 04:27:37;;;;;;;2.20;0.90;;;;;15.00;100809.00;;;;5085504;28;20024;-72
2021/06/06 04:30:05;;;;;;;2.72;0.60;;;;;14.90;100790.00;;;;5086000;28;20402;-74
2021/06/06 04:32:32;;;;;;;7.97;0.70;;;;;14.90;100789.00;;;;5086342;28;20690;-74
2021/06/06 04:34:58;;;;;;;1.15;0.70;;;;;14.90;100757.00;;;;5088534;28;20031;-75
2021/06/06 04:37:25;;;;;;;0.50;0.43;;;;;14.90;100738.00;;;;5090535;28;20032;-74
2021/06/06 04:39:52;;;;;;;0.95;0.60;;;;;14.90;100744.00;;;;5090147;28;20031;-73
2021/06/06 04:42:21;;;;;;;2.83;0.52;;;;;14.80;100760.00;;;;5090739;28;20024;-73
2021/06/06 04:44:48;;;;;;;3.88;0.68;;;;;14.80;100738.00;;;;5089903;28;20032;-74
2021/06/06 04:47:16;;;;;;;1.08;0.60;;;;;14.80;100776.00;;;;5090384;28;20079;-74
2021/06/06 04:49:44;;;;;;;0.57;0.50;;;;;14.80;100753.00;;;;5089945;28;20599;-73
2021/06/06 04:52:13;;;;;;;2.28;0.70;;;;;14.80;100756.00;;;;5089988;28;20782;-72
2021/06/06 04:54:40;;;;;;;0.60;0.60;;;;;14.80;100775.00;;;;5089477;28;20181;-71
2021/06/06 04:57:08;;;;;;;1.42;0.50;;;;;14.80;100780.00;;;;5089039;28;20525;-74
2021/06/06 04:59:38;;;;;;;1.08;0.60;;;;;14.80;100779.00;;;;5089412;28;20470;-72
2021/06/06 05:02:06;;;;;;;0.57;0.50;;;;;14.70;100795.00;;;;5089818;28;20540;-73
2021/06/06 05:04:34;;;;;;;2.83;0.50;;;;;14.80;100806.00;;;;5089835;28;20126;-73
2021/06/06 05:07:00;;;;;;;0.80;0.60;;;;;14.80;100814.00;;;;5089904;28;20559;-74
2021/06/06 05:09:27;;;;;;;2.88;0.60;;;;;14.80;100814.00;;;;5089473;28;20581;-71
2021/06/06 05:11:54;;;;;;;2.38;0.60;;;;;14.80;100809.00;;;;5089833;28;20032;-74
2021/06/06 05:14:21;;;;;;;1.52;0.60;;;;;14.80;100797.00;;;;5089745;28;20032;-71
2021/06/06 05:16:47;;;;;;;1.80;0.70;;;;;14.80;100804.00;;;;5089049;28;20032;-73
2021/06/06 05:19:14;;;;;;;1.33;0.63;;;;;14.80;100797.00;;;;5089595;28;20028;-74
2021/06/06 05:21:41;;;;;;;4.85;0.80;;;;;14.80;100796.00;;;;5089364;28;20401;-75
2021/06/06 05:24:08;;;;;;;5.93;0.93;;;;;14.90;100773.00;;;;5089059;28;20032;-74
2021/06/06 05:26:36;;;;;;;0.82;0.60;;;;;14.80;100761.00;;;;5087990;28;20119;-72
2021/06/06 05:29:04;;;;;;;4.15;0.77;;;;;14.80;100750.00;;;;5089322;28;20035;-74
2021/06/06 05:31:31;;;;;;;1.67;0.80;;;;;14.80;100708.00;;;;5089337;28;20103;-74
2021/06/06 05:33:58;;;;;;;5.70;0.80;;;;;14.80;100699.00;;;;5089578;28;20028;-74
2021/06/06 05:36:24;;;;;;;1.52;0.70;;;;;14.80;100666.00;;;;5089372;28;20024;-73
2021/06/06 05:38:51;;;;;;;1.70;0.93;;;;;14.80;100629.00;;;;5089072;28;20466;-72
2021/06/06 05:41:18;;;;;;;3.40;1.30;;;;;14.80;100605.00;;;;5089369;28;20074;-75
2021/06/06 05:43:44;;;;;;;1.17;0.82;;;;;14.80;100693.00;;;;5088923;28;20032;-73
2021/06/06 05:46:17;;;;;;;5.35;1.00;;;;;14.90;100683.00;;;;5088558;28;20478;-73
2021/06/06 05:48:44;;;;;;;4.28;0.88;;;;;14.80;100664.00;;;;5088362;28;20051;-71
2021/06/06 05:51:10;;;;;;;6.20;0.88;;;;;14.90;100663.00;;;;5088418;28;20042;-71
2021/06/06 05:53:37;;;;;;;2.40;0.90;;;;;14.80;100657.00;;;;5088288;28;20502;-74
2021/06/06 05:56:06;;;;;;;1.33;0.80;;;;;14.80;100668.00;;;;5088287;28;20067;-75
2021/06/06 05:58:33;;;;;;;4.20;0.98;;;;;14.80;100685.00;;;;5088202;28;20881;-75
2021/06/06 06:01:01;;;;;;;0.63;0.63;;;;;14.80;100698.00;;;;5089518;28;20585;-73
2021/06/06 06:03:27;;;;;;;3.00;0.75;;;;;14.80;100690.00;;;;5088489;28;20031;-73
2021/06/06 06:05:54;;;;;;;3.78;0.85;;;;;14.80;100721.00;;;;5088662;28;20401;-71
2021/06/06 06:08:33;;;;;;;2.35;0.80;;;;;14.80;100776.00;;;;5088768;28;20101;-73
2021/06/06 06:11:00;;;;;;;3.20;0.90;;;;;14.80;100808.00;;;;5088386;28;20111;-72
2021/06/06 06:13:29;;;;;;;1.63;0.60;;;;;14.80;100811.00;;;;5088771;28;20077;-73
2021/06/06 06:15:56;;;;;;;2.60;0.85;;;;;14.90;100825.00;;;;5088108;28;20069;-73
2021/06/06 06:18:26;;;;;;;4.45;1.52;;;;;14.90;100805.00;;;;5087492;28;20032;-72
2021/06/06 06:20:53;;;;;;;3.97;2.30;;;;;14.80;100784.00;;;;5088036;28;20024;-72
2021/06/06 06:23:20;;;;;;;5.65;2.30;;;;;14.90;100788.00;;;;5088482;28;20035;-72
2021/06/06 06:25:47;;;;;;;4.25;3.20;;;;;14.90;100789.00;;;;5088089;28;20077;-72
2021/06/06 06:28:14;;;;;;;5.13;3.17;;;;;14.90;100798.00;;;;5088145;28;20036;-73
2021/06/06 06:30:41;;;;;;;7.97;3.95;;;;;14.90;100787.00;;;;5087741;28;20035;-73
2021/06/06 06:33:09;;;;;;;7.15;4.50;;;;;14.90;100805.00;;;;5087452;28;20495;-73
2021/06/06 06:35:36;;;;;;;7.18;3.70;;;;;14.90;100775.00;;;;5087788;28;20030;-72
2021/06/06 06:38:04;;;;;;;9.02;4.65;;;;;14.90;100780.00;;;;5088061;28;20069;-71
2021/06/06 06:40:31;;;;;;;5.47;4.25;;;;;14.90;100784.00;;;;5087941;28;20032;-74
2021/06/06 06:42:59;;;;;;;11.88;4.97;;;;;14.90;100822.00;;;;5087736;28;20028;-72
2021/06/06 06:45:35;;;;;;;12.48;5.43;;;;;14.90;100813.00;;;;5087149;28;20032;-74
2021/06/06 06:48:05;;;;;;;8.75;5.75;;;;;15.00;100831.00;;;;5087381;28;20059;-74
2021/06/06 06:50:33;;;;;;;7.00;5.30;;;;;15.00;100853.00;;;;5087466;28;20474;-75
2021/06/06 06:53:00;;;;;;;6.70;4.80;;;;;15.00;100832.00;;;;5088241;28;20047;-73
2021/06/06 06:55:27;;;;;;;9.88;5.03;;;;;15.10;100853.00;;;;5087562;28;20052;-73
2021/06/06 06:57:59;;;;;;;9.77;4.90;;;;;15.10;100827.00;;;;5086550;28;20047;-73
2021/06/06 07:00:33;;;;;;;9.35;4.93;;;;;15.10;100838.00;;;;5087552;28;20569;-73
2021/06/06 07:02:59;;;;;;;8.45;3.85;;;;;15.10;100814.00;;;;5087535;28;20128;-74
2021/06/06 07:05:26;;;;;;;11.23;4.07;;;;;15.00;100850.00;;;;5087335;28;20043;-74
2021/06/06 07:07:54;;;;;;;5.85;2.35;;;;;15.00;100836.00;;;;5086924;28;20393;-72
2021/06/06 07:10:24;;;;;;;4.22;2.33;;;;;15.00;100853.00;;;;5087910;28;20390;-74
2021/06/06 07:12:51;;;;;;;5.22;2.60;;;;;15.00;100867.00;;;;5087230;28;20368;-73
2021/06/06 07:15:18;;;;;;;8.00;3.03;;;;;15.00;100880.00;;;;5087211;28;20027;-74
2021/06/06 07:17:45;;;;;;;4.10;2.33;;;;;15.00;100874.00;;;;5087673;28;20024;-75
2021/06/06 07:20:16;;;;;;;4.55;1.80;;;;;15.00;100892.00;;;;5086153;28;20569;-75
2021/06/06 07:22:43;;;;;;;6.53;2.00;;;;;15.00;100871.00;;;;5085572;28;20448;-73
2021/06/06 07:25:14;;;;;;;4.47;1.98;;;;;15.00;100871.00;;;;5086595;28;20074;-75
2021/06/06 07:27:43;;;;;;;7.67;2.00;;;;;15.00;100868.00;;;;5086668;28;20474;-75
2021/06/06 07:30:14;;;;;;;3.60;1.70;;;;;15.00;100861.00;;;;5087035;28;20040;-75
2021/06/06 07:32:41;;;;;;;8.87;2.23;;;;;15.00;100864.00;;;;5086960;28;20036;-76
2021/06/06 07:35:08;;;;;;;6.88;2.25;;;;;15.00;100877.00;;;;5086796;28;20069;-75
2021/06/06 07:37:35;;;;;;;10.55;2.15;;;;;14.90;100864.00;;;;5086264;28;20032;-75
2021/06/06 07:40:03;;;;;;;2.67;1.67;;;;;14.90;100872.00;;;;5087056;28;20535;-75
2021/06/06 07:42:29;;;;;;;4.78;2.30;;;;;14.90;100892.00;;;;5085717;28;20035;-75
2021/06/06 07:44:56;;;;;;;5.80;2.30;;;;;14.90;100919.00;;;;5086890;28;20581;-73
2021/06/06 07:47:22;;;;;;;6.25;3.00;;;;;14.90;100914.00;;;;5086395;28;20052;-74
2021/06/06 07:49:49;;;;;;;8.23;2.78;;;;;14.90;100913.00;;;;5086474;28;20032;-75
2021/06/06 07:52:15;;;;;;;4.22;2.50;;;;;14.90;100929.00;;;;5086570;28;20028;-73
2021/06/06 07:54:42;;;;;;;5.32;2.40;;;;;14.90;100937.00;;;;5087021;28;20522;-75
2021/06/06 07:57:08;;;;;;;4.53;2.33;;;;;14.90;100941.00;;;;5086540;28;20035;-75
2021/06/06 07:59:35;;;;;;;6.25;2.60;;;;;14.90;100935.00;;;;5086526;28;20394;-74
2021/06/06 08:02:01;;;;;;;13.68;2.15;;;;;14.90;100931.00;;;;5086418;28;20541;-74
2021/06/06 08:04:28;;;;;;;3.58;2.40;;;;;14.90;100942.00;;;;5086293;28;20020;-72
2021/06/06 08:06:55;;;;;;;9.60;2.72;;;;;14.90;100927.00;;;;5086565;28;20082;-75
2021/06/06 08:09:21;;;;;;;9.43;2.97;;;;;14.90;100915.00;;;;5088323;28;20028;-73
2021/06/06 08:11:48;;;;;;;6.45;2.13;;;;;14.90;100914.00;;;;5090644;28;20051;-73
2021/06/06 08:14:14;;;;;;;9.05;2.65;;;;;14.80;100909.00;;;;5090634;28;20039;-72
2021/06/06 08:16:42;;;;;;;8.18;2.92;;;;;14.80;100898.00;;;;5090427;28;20085;-74
2021/06/06 08:19:08;;;;;;;8.05;2.70;;;;;14.80;100903.00;;;;5090401;28;20027;-72
2021/06/06 08:21:41;;;;;;;10.65;3.00;;;;;14.80;100903.00;;;;5090705;28;20020;-73
2021/06/06 08:24:08;;;;;;;7.20;2.80;;;;;14.80;100901.00;;;;5091147;28;20103;-74
2021/06/06 08:26:36;;;;;;;5.88;3.47;;;;;14.80;100899.00;;;;5090507;28;20028;-73
2021/06/06 08:29:04;;;;;;;8.00;3.50;;;;;14.80;100899.00;;;;5090505;28;20024;-72
2021/06/06 08:31:34;;;;;;;8.00;3.70;;;;;14.80;100911.00;;;;5090529;28;20020;-75
2021/06/06 08:34:01;;;;;;;10.93;3.58;;;;;14.90;100900.00;;;;5090411;28;20020;-74
2021/06/06 08:36:30;;;;;;;5.40;3.70;;;;;14.90;100887.00;;;;5090638;28;20107;-73
2021/06/06 08:38:58;;;;;;;7.25;4.10;;;;;14.90;100899.00;;;;5089950;28;20461;-73
2021/06/06 08:41:36;;;;;;;7.20;3.72;;;;;14.90;100919.00;;;;5090355;28;20031;-73
2021/06/06 08:44:18;;;;;;;13.05;3.90;;;;;14.90;100905.00;;;;5090173;28;20039;-75
2021/06/06 08:47:11;;;;;;;8.20;3.90;;;;;14.90;100899.00;;;;5090021;28;20111;-73
2021/06/06 08:49:47;;;;;;;11.77;3.78;;;;;14.90;100892.00;;;;5090139;28;20024;-73
2021/06/06 08:52:23;;;;;;;12.18;3.50;;;;;14.90;100888.00;;;;5089952;28;20113;-74
2021/06/06 08:55:10;;;;;;;9.68;3.33;;;;;14.90;100893.00;;;;5089717;28;20028;-74
2021/06/06 08:57:42;;;;;;;11.25;3.10;;;;;14.80;100895.00;;;;5090045;28;20645;-73
2021/06/06 09:00:18;;;;;;;10.05;3.78;;;;;14.90;100899.00;;;;5090294;28;20054;-73
2021/06/06 09:02:51;;;;;;;10.25;4.07;;;;;14.90;100884.00;;;;5089813;28;20027;-72
2021/06/06 09:05:32;;;;;;;8.13;3.58;;;;;14.90;100891.00;;;;5089455;28;20470;-74
2021/06/06 09:08:00;;;;;;;11.93;4.50;;;;;14.90;100905.00;;;;5089682;28;20039;-74
2021/06/06 09:10:34;;;;;;;7.53;4.25;;;;;14.80;100935.00;;;;5089557;28;20047;-74
2021/06/06 09:13:04;;;;;;;10.48;4.50;;;;;14.90;100983.00;;;;5089358;28;20058;-73
2021/06/06 09:15:31;;;;;;;10.05;3.05;;;;;14.90;101002.00;;;;5089281;28;20056;-73
2021/06/06 09:18:00;;;;;;;9.38;3.80;;;;;14.90;101012.00;;;;5089369;28;20034;-75
2021/06/06 09:20:33;;;;;;;6.68;3.63;;;;;14.90;101031.00;;;;5089357;28;20028;-72
2021/06/06 09:23:30;;;;;;;9.05;4.25;;;;;15.00;101042.00;;;;5089593;28;20036;-74
2021/06/06 09:26:05;;;;;;;6.53;4.05;;;;;15.00;101074.00;;;;5073631;28;20044;-73
2021/06/06 09:28:35;;;;;;;8.30;4.03;;;;;15.00;101068.00;;;;5089065;28;20804;-74
2021/06/06 09:31:07;;;;;;;12.95;4.15;;;;;15.00;101062.00;;;;5089259;28;20356;-75
2021/06/06 09:33:42;;;;;;;10.82;4.43;;;;;15.00;101067.00;;;;5089805;28;20127;-73
2021/06/06 09:36:42;;;;;;;6.63;3.72;;;;;15.00;101062.00;;;;5088740;28;20032;-74
2021/06/06 09:39:20;;;;;;;10.98;3.80;;;;;15.00;101041.00;;;;5089207;28;20406;-74
2021/06/06 09:41:58;;;;;;;15.98;4.40;;;;;15.00;101038.00;;;;5088965;28;20032;-74
2021/06/06 09:44:30;;;;;;;8.50;4.03;;;;;15.00;101034.00;;;;5088401;28;20380;-73
2021/06/06 09:47:00;;;;;;;8.77;4.07;;;;;15.00;101003.00;;;;5089218;28;20044;-74
2021/06/06 09:49:36;;;;;;;8.63;3.58;;;;;14.90;101002.00;;;;5089063;28;20035;-74
2021/06/06 09:52:40;;;;;;;11.85;3.53;;;;;14.90;101032.00;;;;5088991;28;20034;-73
2021/06/06 09:55:27;;;;;;;5.72;3.53;;;;;14.90;101067.00;;;;5088390;28;20940;-74
2021/06/06 09:58:11;;;;;;;6.65;3.45;;;;;15.00;101056.00;;;;5088758;28;20028;-74
2021/06/06 10:00:46;;;;;;;4.97;3.22;;;;;14.90;101043.00;;;;5088705;28;20024;-74
2021/06/06 10:16:46;;;;;;;5.75;3.78;;;;;15.00;101086.00;;;;5166814;27;20479;-78
2021/06/06 10:19:46;;;;;;;8.40;3.40;;;;;15.00;101068.00;;;;5145255;27;20046;-78
2021/06/06 10:22:22;;;;;;;8.63;3.60;;;;;15.00;101086.00;;;;5131571;27;20179;-78
2021/06/06 10:25:16;;;;;;;4.97;3.42;;;;;15.00;101077.00;;;;5145609;27;20512;-78
2021/06/06 10:27:50;;;;;;;4.75;2.90;;;;;15.00;101068.00;;;;5145640;27;20386;-77
2021/06/06 10:30:33;;;;;;;7.28;3.28;;;;;15.00;101077.00;;;;5145306;27;20031;-78
2021/06/06 10:33:16;;;;;;;5.18;3.17;;;;;15.10;101081.00;;;;5145478;27;20027;-78
2021/06/06 10:35:43;;;;;;;3.22;2.92;;;;;15.10;101092.00;;;;5144313;27;20582;-78
2021/06/06 10:38:10;;;;;;;12.80;4.05;;;;;15.10;101109.00;;;;5145345;27;20035;-78
2021/06/06 10:40:42;;;;;;;5.90;3.30;;;;;15.10;101122.00;;;;5145153;27;20031;-78
2021/06/06 10:43:34;;;;;;;9.35;3.42;;;;;15.00;101124.00;;;;5144846;27;20062;-78
2021/06/06 10:46:17;;;;;;;10.85;3.47;;;;;15.00;101129.00;;;;5145290;27;20109;-77
2021/06/06 10:49:11;;;;;;;7.88;3.13;;;;;15.00;101127.00;;;;5144821;27;20034;-79
2021/06/06 10:51:42;;;;;;;8.40;3.60;;;;;15.00;101134.00;;;;5145202;27;20106;-78
2021/06/06 10:54:42;;;;;;;6.38;3.53;;;;;15.00;101140.00;;;;5144609;27;20026;-77
2021/06/06 10:57:33;;;;;;;6.30;3.70;;;;;15.10;101124.00;;;;5144596;27;20045;-78
2021/06/06 11:00:05;;;;;;;7.22;3.45;;;;;15.00;101145.00;;;;5144765;27;20613;-77
2021/06/06 11:02:50;;;;;;;8.15;3.35;;;;;15.10;101140.00;;;;5145204;27;20114;-78
2021/06/06 11:05:31;;;;;;;12.68;3.35;;;;;15.10;101141.00;;;;5132806;27;20083;-78
2021/06/06 11:07:58;;;;;;;18.70;3.67;;;;;15.10;101136.00;;;;5122795;27;20032;-78
2021/06/06 11:10:33;;;;;;;10.68;3.95;;;;;15.10;101119.00;;;;5123693;27;20035;-77
2021/06/06 11:13:12;;;;;;;15.60;4.15;;;;;15.10;101139.00;;;;5124273;27;20023;-78
2021/06/06 11:15:53;;;;;;;8.95;3.55;;;;;15.10;101143.00;;;;5134363;27;20039;-77
2021/06/06 11:18:22;;;;;;;14.82;3.75;;;;;15.10;101155.00;;;;5130663;27;20019;-78
2021/06/06 11:20:48;;;;;;;6.45;3.63;;;;;15.10;101160.00;;;;5130373;27;20130;-78
2021/06/06 11:23:20;;;;;;;11.45;4.10;;;;;15.10;101155.00;;;;5130576;27;20031;-77
2021/06/06 11:25:51;;;;;;;11.05;4.32;;;;;15.20;101164.00;;;;5131200;27;20114;-78
2021/06/06 11:28:31;;;;;;;10.93;4.10;;;;;15.20;101174.00;;;;5130165;27;20031;-78
2021/06/06 11:30:58;;;;;;;7.75;3.92;;;;;15.20;101158.00;;;;5130844;27;20122;-78
2021/06/06 11:33:38;;;;;;;13.90;5.63;;;;;15.20;101184.00;;;;5130397;27;20023;-77
2021/06/06 11:36:06;;;;;;;9.80;5.18;;;;;15.20;101159.00;;;;5130396;27;20027;-77
2021/06/06 11:38:45;;;;;;;11.90;5.35;;;;;15.20;101163.00;;;;5130357;27;20063;-78
2021/06/06 11:41:23;;;;;;;8.63;5.05;;;;;15.30;101166.00;;;;5129953;27;20072;-78
2021/06/06 11:44:08;;;;;;;12.30;4.68;;;;;15.30;101160.00;;;;5129670;27;20038;-77
2021/06/06 11:47:05;;;;;;;5.50;3.70;;;;;15.30;101164.00;;;;5129995;27;20918;-78
2021/06/06 11:49:54;;;;;;;4.40;3.22;;;;;15.40;101163.00;;;;5130228;27;20497;-78
2021/06/06 11:52:20;;;;;;;6.72;2.92;;;;;15.40;101159.00;;;;5129344;27;20080;-76
2021/06/06 11:54:55;;;;;;;8.43;2.95;;;;;15.40;101149.00;;;;5129783;27;20030;-76
2021/06/06 11:57:32;;;;;;;7.18;3.03;;;;;15.40;101166.00;;;;5129282;27;20023;-77
2021/06/06 12:00:12;;;;;;;10.05;3.33;;;;;15.50;101171.00;;;;5128811;27;20027;-77
2021/06/06 12:02:39;;;;;;;7.55;2.80;;;;;15.40;101151.00;;;;5129190;27;20027;-77
2021/06/06 12:05:27;;;;;;;12.15;3.20;;;;;15.50;101164.00;;;;5128750;27;20561;-78
2021/06/06 12:07:54;;;;;;;5.35;2.88;;;;;15.50;101161.00;;;;5128882;27;20023;-76
2021/06/06 12:10:31;;;;;;;3.65;2.67;;;;;15.50;101142.00;;;;5128966;27;20038;-76
2021/06/06 12:13:02;;;;;;;5.82;2.50;;;;;15.60;101155.00;;;;5129478;27;20027;-76
2021/06/06 12:15:36;;;;;;;4.15;2.30;;;;;15.60;101150.00;;;;5128786;27;20228;-76
2021/06/06 12:18:22;;;;;;;7.32;2.70;;;;;15.60;101165.00;;;;5128764;27;20027;-76
2021/06/06 12:20:59;;;;;;;4.88;1.70;;;;;15.60;101156.00;;;;5128949;27;20031;-76
2021/06/06 12:23:29;;;;;;;2.65;1.70;;;;;15.60;101154.00;;;;5128438;27;20038;-76
2021/06/06 12:26:06;;;;;;;5.18;2.30;;;;;15.60;101159.00;;;;5128549;27;20062;-73
2021/06/06 12:28:39;;;;;;;4.85;3.70;;;;;15.70;101153.00;;;;5127559;27;20031;-75
2021/06/06 12:31:15;;;;;;;7.20;2.17;;;;;15.70;101145.00;;;;5128668;27;20393;-76
2021/06/06 12:33:41;;;;;;;4.10;2.25;;;;;15.70;101138.00;;;;5128612;27;20518;-76
2021/06/06 12:36:33;;;;;;;2.95;2.10;;;;;15.70;101163.00;;;;5128766;27;20023;-76
2021/06/06 12:39:04;;;;;;;6.65;2.22;;;;;15.70;101159.00;;;;5128988;27;20025;-76
2021/06/06 12:41:34;;;;;;;4.90;2.80;;;;;15.80;101153.00;;;;5128255;27;20046;-77
2021/06/06 12:44:02;;;;;;;4.50;2.65;;;;;15.70;101166.00;;;;5128289;27;20527;-77